Time;durP1;ratioP1;P1;durP2;ratioP2;P2;SDS_P1;SDS_P2;PMS_P1;PMS_P2;Temp;Humidity;BMP_temperature;BMP_pressure;BME280_temperature;BME280_humidity;BME280_pressure;Samples;Min_cycle;Max_cycle;Signal;HPM_P1;HPM_P2
2020/12/29 00:01:39;;;;;;;;;;;;;;;-1.11;100.00;96695.72;5072723;28;20383;-77
2020/12/29 00:04:07;;;;;;;;;;;;;;;-1.24;100.00;96691.88;5054716;28;19924;-77
2020/12/29 00:06:34;;;;;;;;;;;;;;;-1.28;100.00;96690.34;5055002;28;19967;-77
2020/12/29 00:09:01;;;;;;;;;;;;;;;-1.39;100.00;96684.19;5072518;28;19925;-77
2020/12/29 00:11:30;;;;;;;;;;;;;;;-1.35;100.00;96691.19;5072776;28;19998;-77
2020/12/29 00:13:56;;;;;;;;;;;;;;;-1.31;100.00;96691.16;5054521;28;19924;-76
2020/12/29 00:16:23;;;;;;;;;;;;;;;-1.33;100.00;96688.81;5038207;28;19924;-77
2020/12/29 00:18:49;;;;;;;;;;;;;;;-1.34;100.00;96700.19;5072593;28;19931;-77
2020/12/29 00:21:17;;;;;;;;;;;;;;;-1.32;100.00;96703.31;5072652;28;19967;-77
2020/12/29 00:23:43;;;;;;;;;;;;;;;-1.19;100.00;96705.16;5054913;28;19931;-76
2020/12/29 00:26:11;;;;;;;;;;;;;;;-1.29;100.00;96707.97;5054855;28;20383;-77
2020/12/29 00:28:38;;;;;;;;;;;;;;;-1.28;100.00;96698.56;5072334;28;20298;-77
2020/12/29 00:31:05;;;;;;;;;;;;;;;-1.21;100.00;96706.75;5076019;28;20294;-77
2020/12/29 00:33:32;;;;;;;;;;;;;;;-1.02;100.00;96723.44;5076089;28;20014;-76
2020/12/29 00:36:01;;;;;;;;;;;;;;;-0.99;100.00;96719.88;5075997;28;20360;-77
2020/12/29 00:38:28;;;;;;;;;;;;;;;-1.16;100.00;96711.78;5075972;28;19924;-77
2020/12/29 00:40:54;;;;;;;;;;;;;;;-1.27;100.00;96713.84;5057735;28;19931;-77
2020/12/29 00:43:21;;;;;;;;;;;;;;;-1.22;100.00;96710.66;5076323;28;19962;-76
2020/12/29 00:45:47;;;;;;;;;;;;;;;-1.11;100.00;96730.53;5075629;28;19928;-77
2020/12/29 00:48:13;;;;;;;;;;;;;;;-1.05;100.00;96729.72;5057873;28;20272;-76
2020/12/29 00:50:40;;;;;;;;;;;;;;;-1.00;100.00;96739.47;5057944;28;19954;-76
2020/12/29 00:53:08;;;;;;;;;;;;;;;-0.82;100.00;96729.88;5075665;28;19928;-76
2020/12/29 00:55:40;;;;;;;;;;;;;;;-0.85;100.00;96732.69;5057524;28;19974;-76
2020/12/29 00:58:07;;;;;;;;;;;;;;;-0.86;100.00;96745.59;5057718;28;19997;-76
2020/12/29 01:00:34;;;;;;;;;;;;;;;-0.99;100.00;96725.34;5057637;28;19924;-76
2020/12/29 01:03:03;;;;;;;;;;;;;;;-0.84;100.00;96736.97;5057864;28;19924;-76
2020/12/29 01:05:30;;;;;;;;;;;;;;;-0.78;100.00;96735.34;5040856;28;19924;-76
2020/12/29 01:08:00;;;;;;;;;;;;;;;-0.56;100.00;96744.97;5040920;28;19933;-76
2020/12/29 01:10:29;;;;;;;;;;;;;;;-0.58;100.00;96750.84;5057307;28;19925;-76
2020/12/29 01:13:28;;;;;;;;;;;;;;;-0.60;100.00;96746.94;5069478;28;19926;-76
2020/12/29 01:15:55;;;;;;;;;;;;;;;-0.59;100.00;96754.00;5057462;28;20006;-77
2020/12/29 01:18:22;;;;;;;;;;;;;;;-0.53;100.00;96744.16;5075282;28;20413;-77
2020/12/29 01:20:48;;;;;;;;;;;;;;;-0.54;100.00;96745.31;5075233;28;19985;-77
2020/12/29 01:23:16;;;;;;;;;;;;;;;-0.40;100.00;96751.47;5057237;28;19981;-77
2020/12/29 01:25:43;;;;;;;;;;;;;;;-0.45;100.00;96753.84;5072056;28;19924;-77
2020/12/29 01:28:09;;;;;;;;;;;;;;;-0.53;100.00;96741.41;5073828;28;19970;-77
2020/12/29 01:30:36;;;;;;;;;;;;;;;-0.52;100.00;96737.47;5074101;28;19999;-76
2020/12/29 01:33:03;;;;;;;;;;;;;;;-0.50;100.00;96735.09;5074813;28;19963;-77
2020/12/29 01:35:29;;;;;;;;;;;;;;;-0.41;100.00;96741.66;5074637;28;19931;-77
2020/12/29 01:37:56;;;;;;;;;;;;;;;-0.37;100.00;96747.91;5040375;28;20009;-76
2020/12/29 01:40:22;;;;;;;;;;;;;;;-0.31;100.00;96751.75;5056465;28;20399;-76
2020/12/29 01:42:49;;;;;;;;;;;;;;;-0.31;100.00;96753.72;5056546;28;20314;-76
2020/12/29 01:45:16;;;;;;;;;;;;;;;-0.43;100.00;96751.47;5074639;28;20086;-76
2020/12/29 01:47:42;;;;;;;;;;;;;;;-0.57;100.00;96751.63;5074729;28;19924;-76
2020/12/29 01:50:13;;;;;;;;;;;;;;;-0.70;100.00;96743.13;5074536;28;19931;-77
2020/12/29 01:52:40;;;;;;;;;;;;;;;-0.69;100.00;96749.38;5040393;28;19925;-76
2020/12/29 01:55:08;;;;;;;;;;;;;;;-0.61;100.00;96756.38;5074227;28;19935;-76
2020/12/29 01:57:35;;;;;;;;;;;;;;;-0.61;100.00;96756.38;5056726;28;19925;-76
2020/12/29 02:00:08;;;;;;;;;;;;;;;-0.64;100.00;96754.44;5056541;28;19970;-76
2020/12/29 02:02:45;;;;;;;;;;;;;;;-0.69;100.00;96757.59;5074244;28;20013;-77
2020/12/29 02:05:12;;;;;;;;;;;;;;;-0.71;100.00;96757.25;5074473;28;19979;-76
2020/12/29 02:07:39;;;;;;;;;;;;;;;-0.61;100.00;96761.84;5074316;28;20010;-76
2020/12/29 02:10:05;;;;;;;;;;;;;;;-0.21;100.00;96772.03;5074041;28;19929;-76
2020/12/29 02:12:33;;;;;;;;;;;;;;;-0.06;100.00;96776.16;5072937;28;20297;-76
2020/12/29 02:15:01;;;;;;;;;;;;;;;-0.17;100.00;96781.78;5074150;28;19931;-76
2020/12/29 02:17:29;;;;;;;;;;;;;;;-0.14;100.00;96780.19;5074048;28;19959;-76
2020/12/29 02:19:56;;;;;;;;;;;;;;;-0.16;100.00;96788.06;5056100;28;19924;-76
2020/12/29 02:22:26;;;;;;;;;;;;;;;-0.07;100.00;96793.84;5073650;28;20367;-76
2020/12/29 02:24:53;;;;;;;;;;;;;;;0.18;100.00;96808.09;5073897;28;19928;-76
2020/12/29 02:27:20;;;;;;;;;;;;;;;0.26;100.00;96809.53;5056064;28;20338;-76
2020/12/29 02:29:47;;;;;;;;;;;;;;;0.02;100.00;96807.84;5073779;28;19929;-76
2020/12/29 02:32:13;;;;;;;;;;;;;;;-0.28;100.00;96805.03;5073907;28;19951;-77
2020/12/29 02:34:41;;;;;;;;;;;;;;;-0.39;100.00;96796.13;5056099;28;20267;-76
2020/12/29 02:37:08;;;;;;;;;;;;;;;-0.29;100.00;96806.22;5055755;28;19951;-76
2020/12/29 02:39:41;;;;;;;;;;;;;;;-0.41;100.00;96810.25;5055723;28;19925;-77
2020/12/29 02:42:10;;;;;;;;;;;;;;;-0.57;100.00;96809.22;5073564;28;20205;-76
2020/12/29 02:44:37;;;;;;;;;;;;;;;-0.64;100.00;96810.06;5073550;28;19928;-76
2020/12/29 02:47:04;;;;;;;;;;;;;;;-0.66;100.00;96815.16;5073664;28;19925;-76
2020/12/29 02:49:34;;;;;;;;;;;;;;;-0.59;100.00;96803.38;5055705;28;19924;-76
2020/12/29 02:52:01;;;;;;;;;;;;;;;-0.39;100.00;96812.56;5072886;28;20042;-76
2020/12/29 02:54:27;;;;;;;;;;;;;;;-0.03;100.00;96816.53;5055045;28;20379;-76
2020/12/29 02:56:55;;;;;;;;;;;;;;;-0.06;100.00;96820.09;5073317;28;19925;-76
2020/12/29 02:59:21;;;;;;;;;;;;;;;-0.28;100.00;96821.50;5073278;28;19928;-76
2020/12/29 03:01:48;;;;;;;;;;;;;;;-0.09;100.00;96826.41;5073238;28;19925;-76
2020/12/29 03:04:15;;;;;;;;;;;;;;;0.27;100.00;96849.56;5073309;28;19955;-76
2020/12/29 03:06:42;;;;;;;;;;;;;;;0.51;100.00;96873.25;5072876;28;20363;-76
2020/12/29 03:09:08;;;;;;;;;;;;;;;0.73;100.00;96873.75;5073188;28;19928;-76
2020/12/29 03:11:35;;;;;;;;;;;;;;;0.80;100.00;96881.91;5073192;28;20015;-76
2020/12/29 03:14:02;;;;;;;;;;;;;;;0.77;100.00;96883.53;5073161;28;19929;-76
2020/12/29 03:16:29;;;;;;;;;;;;;;;0.83;100.00;96881.88;5055357;28;19925;-76
2020/12/29 03:18:56;;;;;;;;;;;;;;;0.93;100.00;96891.16;5055390;28;20383;-76
2020/12/29 03:21:23;;;;;;;;;;;;;;;0.90;100.00;96892.78;5055096;28;20391;-76
2020/12/29 03:23:50;;;;;;;;;;;;;;;0.88;100.00;96897.13;5072996;28;20495;-76
2020/12/29 03:26:17;;;;;;;;;;;;;;;0.75;100.00;96894.16;5055290;28;19925;-76
2020/12/29 03:28:44;;;;;;;;;;;;;;;0.62;100.00;96892.34;5073004;28;20356;-76
2020/12/29 03:31:12;;;;;;;;;;;;;;;0.40;100.00;96886.31;5072977;28;20027;-76
2020/12/29 03:33:39;;;;;;;;;;;;;;;0.64;100.00;96889.94;5072973;28;19925;-76
2020/12/29 03:36:05;;;;;;;;;;;;;;;0.60;100.00;96894.72;5072649;28;20401;-76
2020/12/29 03:38:31;;;;;;;;;;;;;;;0.50;100.00;96887.38;5072918;28;19974;-76
2020/12/29 03:40:58;;;;;;;;;;;;;;;0.42;100.00;96885.91;5072939;28;20364;-76
2020/12/29 03:43:26;;;;;;;;;;;;;;;0.26;100.00;96889.19;5054982;28;19924;-76
2020/12/29 03:45:52;;;;;;;;;;;;;;;0.12;100.00;96886.63;5072744;28;19928;-77
2020/12/29 03:48:20;;;;;;;;;;;;;;;0.41;100.00;96898.84;5055078;28;19989;-76
2020/12/29 03:50:47;;;;;;;;;;;;;;;0.48;100.00;96901.53;5072535;28;20418;-76
2020/12/29 03:53:13;;;;;;;;;;;;;;;0.34;100.00;96895.38;5054877;28;20000;-76
2020/12/29 03:55:40;;;;;;;;;;;;;;;0.32;100.00;96893.06;5072881;28;19925;-76
2020/12/29 03:58:06;;;;;;;;;;;;;;;0.48;100.00;96892.50;5072896;28;20014;-76
2020/12/29 04:00:34;;;;;;;;;;;;;;;0.52;100.00;96904.22;5072569;28;20394;-76
2020/12/29 04:03:00;;;;;;;;;;;;;;;0.63;100.00;96905.69;5072666;28;20292;-76
2020/12/29 04:05:27;;;;;;;;;;;;;;;0.73;100.00;96910.25;5040906;28;19981;-76
2020/12/29 04:07:54;;;;;;;;;;;;;;;0.87;100.00;96915.59;5042189;28;19978;-76
2020/12/29 04:10:21;;;;;;;;;;;;;;;0.91;100.00;96921.06;5076467;28;20387;-76
2020/12/29 04:12:47;;;;;;;;;;;;;;;0.93;100.00;96927.69;5076587;28;20426;-76
2020/12/29 04:15:14;;;;;;;;;;;;;;;1.01;100.00;96929.19;5076431;28;20414;-76
2020/12/29 04:17:41;;;;;;;;;;;;;;;1.07;100.00;96927.53;5058680;28;19925;-76
2020/12/29 04:20:08;;;;;;;;;;;;;;;1.11;100.00;96935.72;5076052;28;19928;-76
2020/12/29 04:22:36;;;;;;;;;;;;;;;1.17;100.00;96939.56;5058449;28;20375;-76
2020/12/29 04:25:03;;;;;;;;;;;;;;;1.17;100.00;96943.09;5041747;28;19931;-76
2020/12/29 04:27:30;;;;;;;;;;;;;;;1.23;100.00;96946.94;5025361;28;19925;-76
2020/12/29 04:29:56;;;;;;;;;;;;;;;1.18;100.00;96938.41;5058432;28;19925;-76
2020/12/29 04:32:23;;;;;;;;;;;;;;;1.19;100.00;96940.72;5075965;28;19928;-76
2020/12/29 04:34:50;;;;;;;;;;;;;;;1.23;100.00;96933.19;5075832;28;19924;-76
2020/12/29 04:37:25;;;;;;;;;;;;;;;1.19;100.00;96940.72;5058207;28;19924;-76
2020/12/29 04:39:52;;;;;;;;;;;;;;;1.30;100.00;96941.34;5075835;28;19925;-76
2020/12/29 04:42:19;;;;;;;;;;;;;;;1.36;100.00;96947.94;5058186;28;19924;-76
2020/12/29 04:44:46;;;;;;;;;;;;;;;1.35;100.00;96934.59;5075890;28;19924;-76
2020/12/29 04:47:13;;;;;;;;;;;;;;;1.37;100.00;96927.50;5075742;28;19950;-76
2020/12/29 04:49:43;;;;;;;;;;;;;;;1.41;100.00;96939.25;5057770;28;19924;-76
2020/12/29 04:52:09;;;;;;;;;;;;;;;1.51;100.00;96932.81;5075802;28;19924;-76
2020/12/29 04:54:36;;;;;;;;;;;;;;;1.57;100.00;96935.88;5075867;28;19928;-76
2020/12/29 04:57:04;;;;;;;;;;;;;;;1.60;100.00;96941.34;5075701;28;19925;-76
2020/12/29 04:59:32;;;;;;;;;;;;;;;1.57;100.00;96942.16;5057853;28;20391;-77
2020/12/29 05:01:59;;;;;;;;;;;;;;;1.70;100.00;96945.09;5057549;28;20338;-76
2020/12/29 05:04:26;;;;;;;;;;;;;;;1.70;100.00;96942.34;5075719;28;19928;-76
2020/12/29 05:06:52;;;;;;;;;;;;;;;1.70;100.00;96951.41;5057586;28;19925;-77
2020/12/29 05:09:20;;;;;;;;;;;;;;;1.81;100.00;96952.03;5057657;28;19926;-76
2020/12/29 05:11:47;;;;;;;;;;;;;;;1.91;100.00;96963.31;5075441;28;19928;-76
2020/12/29 05:14:13;;;;;;;;;;;;;;;1.96;100.00;96962.81;5057423;28;20376;-76
2020/12/29 05:16:40;;;;;;;;;;;;;;;1.96;100.00;96962.81;5056190;28;20298;-76
2020/12/29 05:19:08;;;;;;;;;;;;;;;1.98;100.00;96954.91;5075308;28;19978;-76
2020/12/29 05:21:36;;;;;;;;;;;;;;;1.99;100.00;96942.69;5075259;28;19925;-76
2020/12/29 05:24:23;;;;;;;;;;;;;;;1.95;100.00;96947.50;5074362;28;20354;-76
2020/12/29 05:26:54;;;;;;;;;;;;;;;1.95;100.00;96944.72;5057131;28;19951;-76
2020/12/29 05:29:22;;;;;;;;;;;;;;;2.00;100.00;96947.03;5075129;28;19925;-76
2020/12/29 05:31:48;;;;;;;;;;;;;;;1.92;100.00;96941.59;5074757;28;19980;-76
2020/12/29 05:34:22;;;;;;;;;;;;;;;1.99;100.00;96950.97;5057271;28;19931;-76
2020/12/29 05:36:49;;;;;;;;;;;;;;;2.02;100.00;96944.63;5057203;28;19924;-76
2020/12/29 05:39:19;;;;;;;;;;;;;;;2.00;100.00;96947.03;5056964;28;19932;-76
2020/12/29 05:41:46;;;;;;;;;;;;;;;1.95;100.00;96942.78;5040374;28;19978;-76
2020/12/29 05:44:23;;;;;;;;;;;;;;;1.96;100.00;96940.78;5074700;28;19925;-76
2020/12/29 05:46:49;;;;;;;;;;;;;;;2.00;100.00;96947.03;5056649;28;19929;-76
2020/12/29 05:49:18;;;;;;;;;;;;;;;1.96;100.00;96938.81;5074682;28;20016;-76
2020/12/29 05:51:46;;;;;;;;;;;;;;;1.97;100.00;96934.09;5074605;28;19925;-75
2020/12/29 05:54:14;;;;;;;;;;;;;;;1.94;100.00;96924.66;5074836;28;19924;-75
2020/12/29 05:56:40;;;;;;;;;;;;;;;1.98;100.00;96939.19;5056557;28;20395;-76
2020/12/29 05:59:10;;;;;;;;;;;;;;;2.01;100.00;96937.56;5056709;28;19929;-76
2020/12/29 06:01:46;;;;;;;;;;;;;;;1.92;100.00;96940.06;5074013;28;19930;-76
2020/12/29 06:04:13;;;;;;;;;;;;;;;1.81;100.00;96935.50;5074408;28;19970;-75
2020/12/29 06:06:41;;;;;;;;;;;;;;;1.85;100.00;96941.72;5074140;28;19928;-76
2020/12/29 06:09:09;;;;;;;;;;;;;;;1.82;100.00;96942.56;5073048;28;19997;-76
2020/12/29 06:11:38;;;;;;;;;;;;;;;1.82;100.00;96952.78;5074217;28;19925;-76
2020/12/29 06:14:09;;;;;;;;;;;;;;;1.84;100.00;96955.91;5056353;28;19930;-76
2020/12/29 06:16:37;;;;;;;;;;;;;;;1.80;100.00;96960.72;5073921;28;19931;-77
2020/12/29 06:19:11;;;;;;;;;;;;;;;1.77;100.00;96951.28;5056030;28;20345;-78
2020/12/29 06:21:38;;;;;;;;;;;;;;;1.78;100.00;96958.38;5074032;28;19929;-77
2020/12/29 06:24:05;;;;;;;;;;;;;;;1.77;100.00;96967.81;5073919;28;19924;-77
2020/12/29 06:26:32;;;;;;;;;;;;;;;1.72;100.00;96965.53;5072444;28;19924;-76
2020/12/29 06:29:02;;;;;;;;;;;;;;;1.69;100.00;96962.84;5073442;28;19924;-76
2020/12/29 06:31:29;;;;;;;;;;;;;;;1.65;100.00;96957.38;5039268;28;19935;-76
2020/12/29 06:33:56;;;;;;;;;;;;;;;1.68;100.00;96964.78;5073746;28;19936;-76
2020/12/29 06:36:26;;;;;;;;;;;;;;;1.67;100.00;96976.22;5073676;28;19978;-76
2020/12/29 06:38:53;;;;;;;;;;;;;;;1.65;100.00;96965.63;5073657;28;20019;-75
2020/12/29 06:41:19;;;;;;;;;;;;;;;1.68;100.00;96959.28;5072300;28;19968;-76
2020/12/29 06:43:47;;;;;;;;;;;;;;;1.65;100.00;96954.63;5073193;28;19924;-75
2020/12/29 06:46:14;;;;;;;;;;;;;;;1.65;100.00;96957.38;5055565;28;20519;-75
2020/12/29 06:48:43;;;;;;;;;;;;;;;1.62;100.00;96960.19;5055706;28;19932;-75
2020/12/29 06:51:12;;;;;;;;;;;;;;;1.63;100.00;96965.28;5072236;28;19925;-76
2020/12/29 06:53:40;;;;;;;;;;;;;;;1.66;100.00;96967.22;5073741;28;19976;-75
2020/12/29 06:56:17;;;;;;;;;;;;;;;1.68;100.00;96975.81;5073314;28;19928;-75
2020/12/29 06:58:43;;;;;;;;;;;;;;;1.68;100.00;96970.31;5055344;28;19997;-76
2020/12/29 07:01:20;;;;;;;;;;;;;;;1.69;100.00;96974.63;5073060;28;19925;-76
2020/12/29 07:03:47;;;;;;;;;;;;;;;1.72;100.00;96981.28;5073233;28;19931;-76
2020/12/29 07:06:14;;;;;;;;;;;;;;;1.76;100.00;96982.78;5055475;28;20023;-75
2020/12/29 07:08:41;;;;;;;;;;;;;;;1.76;100.00;96993.78;5071473;28;19925;-75
2020/12/29 07:11:15;;;;;;;;;;;;;;;1.79;100.00;97006.72;5073192;28;19935;-75
2020/12/29 07:13:44;;;;;;;;;;;;;;;1.76;100.00;97002.06;5073025;28;19925;-76
2020/12/29 07:16:13;;;;;;;;;;;;;;;1.77;100.00;97000.84;5073133;28;19932;-75
2020/12/29 07:18:43;;;;;;;;;;;;;;;1.79;100.00;97003.97;5073170;28;19986;-76
2020/12/29 07:21:21;;;;;;;;;;;;;;;1.79;100.00;97005.94;5038677;28;19924;-76
2020/12/29 07:23:51;;;;;;;;;;;;;;;1.79;100.00;97009.47;5072987;28;19928;-76
2020/12/29 07:26:29;;;;;;;;;;;;;;;1.67;100.00;97012.78;5073019;28;19925;-75
2020/12/29 07:28:56;;;;;;;;;;;;;;;1.66;100.00;97011.25;5072696;28;20368;-76
2020/12/29 07:31:23;;;;;;;;;;;;;;;1.65;100.00;97014.41;5072961;28;19924;-75
2020/12/29 07:33:53;;;;;;;;;;;;;;;1.57;100.00;97021.19;5072944;28;20456;-75
2020/12/29 07:36:20;;;;;;;;;;;;;;;1.57;100.00;97019.25;5072960;28;19929;-75
2020/12/29 07:38:48;;;;;;;;;;;;;;;1.50;100.00;97024.06;5055643;28;20292;-76
2020/12/29 07:41:18;;;;;;;;;;;;;;;1.50;100.00;97024.81;5042475;28;19970;-75
2020/12/29 07:43:45;;;;;;;;;;;;;;;1.52;100.00;97036.19;5076808;28;19963;-75
2020/12/29 07:46:14;;;;;;;;;;;;;;;1.51;100.00;97037.41;5077232;28;19924;-75
2020/12/29 07:48:40;;;;;;;;;;;;;;;1.47;100.00;97053.16;5076928;28;19932;-76
2020/12/29 07:51:07;;;;;;;;;;;;;;;1.54;100.00;97058.59;5059304;28;19952;-75
2020/12/29 07:53:33;;;;;;;;;;;;;;;1.47;100.00;97069.66;5075864;28;19931;-75
2020/12/29 07:55:59;;;;;;;;;;;;;;;1.49;100.00;97078.31;5042029;28;19929;-76
2020/12/29 07:58:26;;;;;;;;;;;;;;;1.52;100.00;97082.19;5076913;28;19924;-75
2020/12/29 08:00:52;;;;;;;;;;;;;;;1.54;100.00;97096.34;5058870;28;19950;-75
2020/12/29 08:03:19;;;;;;;;;;;;;;;1.36;100.00;97096.53;5076603;28;19989;-75
2020/12/29 08:05:46;;;;;;;;;;;;;;;1.28;100.00;97095.06;5042459;28;20367;-75
2020/12/29 08:08:13;;;;;;;;;;;;;;;1.19;100.00;97089.25;5042061;28;19924;-75
2020/12/29 08:10:40;;;;;;;;;;;;;;;1.18;100.00;97100.69;5076325;28;19924;-75
2020/12/29 08:13:08;;;;;;;;;;;;;;;1.16;100.00;97112.09;5076659;28;19951;-75
2020/12/29 08:15:38;;;;;;;;;;;;;;;1.12;100.00;97125.06;5042194;28;20333;-75
2020/12/29 08:18:08;;;;;;;;;;;;;;;1.11;100.00;97133.72;5076513;28;19925;-74
2020/12/29 08:20:48;;;;;;;;;;;;;;;1.12;100.00;97136.06;5076373;28;19924;-76
2020/12/29 08:23:17;;;;;;;;;;;;;;;1.12;100.00;97138.81;5076649;28;19924;-75
2020/12/29 08:25:51;;;;;;;;;;;;;;;1.15;100.00;97151.00;5075785;28;20291;-77
2020/12/29 08:28:17;;;;;;;;;;;;;;;1.19;100.00;97168.25;5076108;28;20363;-77
2020/12/29 08:30:44;;;;;;;;;;;;;;;1.20;100.00;97165.09;5076205;28;20400;-77
2020/12/29 08:33:12;;;;;;;;;;;;;;;1.25;100.00;97186.66;5076116;28;19924;-76
2020/12/29 08:35:44;;;;;;;;;;;;;;;1.31;100.00;97201.53;5058558;28;19925;-76
2020/12/29 08:38:19;;;;;;;;;;;;;;;1.33;100.00;97190.88;5058253;28;20390;-77
2020/12/29 08:40:51;;;;;;;;;;;;;;;1.36;100.00;97203.84;5045410;28;19939;-77
2020/12/29 08:43:18;;;;;;;;;;;;;;;1.46;100.00;97236.00;5051789;28;19963;-77
2020/12/29 08:45:47;;;;;;;;;;;;;;;1.48;100.00;97228.13;5070444;28;19925;-75
2020/12/29 08:48:16;;;;;;;;;;;;;;;1.47;100.00;97234.03;5036750;28;20011;-74
2020/12/29 08:50:42;;;;;;;;;;;;;;;1.55;100.00;97241.00;5070282;28;20407;-75
2020/12/29 08:53:09;;;;;;;;;;;;;;;1.58;100.00;97246.50;5035631;28;19928;-75
2020/12/29 08:55:36;;;;;;;;;;;;;;;1.62;100.00;97247.22;5070801;28;19925;-74
2020/12/29 08:58:03;;;;;;;;;;;;;;;1.61;100.00;97262.19;5070488;28;19932;-75
2020/12/29 09:00:30;;;;;;;;;;;;;;;1.65;100.00;97262.94;5052231;28;19925;-75
2020/12/29 09:02:57;;;;;;;;;;;;;;;1.70;100.00;97254.22;5070970;28;19928;-75
2020/12/29 09:05:27;;;;;;;;;;;;;;;1.71;100.00;97271.53;5069847;28;20030;-75
2020/12/29 09:07:55;;;;;;;;;;;;;;;1.72;100.00;97279.41;5073769;28;19931;-75
2020/12/29 09:10:21;;;;;;;;;;;;;;;1.73;100.00;97280.94;5056208;28;20064;-76
2020/12/29 09:12:48;;;;;;;;;;;;;;;1.78;100.00;97288.78;5075507;28;19928;-75
2020/12/29 09:15:24;;;;;;;;;;;;;;;1.73;100.00;97289.22;5075464;28;19986;-76
2020/12/29 09:17:59;;;;;;;;;;;;;;;1.78;100.00;97310.00;5075305;28;19986;-76
2020/12/29 09:20:30;;;;;;;;;;;;;;;1.84;100.00;97325.69;5057363;28;19928;-75
2020/12/29 09:22:56;;;;;;;;;;;;;;;1.89;100.00;97339.00;5040635;28;19925;-76
2020/12/29 09:25:24;;;;;;;;;;;;;;;1.88;100.00;97342.97;5075348;28;19967;-74
2020/12/29 09:28:06;;;;;;;;;;;;;;;1.88;100.00;97346.91;5057461;28;19967;-75
2020/12/29 09:30:32;;;;;;;;;;;;;;;1.88;100.00;97360.69;5075108;28;19971;-76
2020/12/29 09:32:59;;;;;;;;;;;;;;;1.91;100.00;97368.13;5057241;28;19929;-77
2020/12/29 09:35:26;;;;;;;;;;;;;;;1.91;100.00;97370.88;5040810;28;20272;-76
2020/12/29 09:37:53;;;;;;;;;;;;;;;1.95;100.00;97379.88;5074432;28;19963;-76
2020/12/29 09:40:20;;;;;;;;;;;;;;;2.00;100.00;97393.22;5056945;28;19925;-76
2020/12/29 09:42:46;;;;;;;;;;;;;;;1.97;100.00;97400.31;5056690;28;20284;-76
2020/12/29 09:45:16;;;;;;;;;;;;;;;2.01;100.00;97401.09;5074752;28;19924;-77
2020/12/29 09:47:43;;;;;;;;;;;;;;;1.97;100.00;97405.81;5056963;28;19925;-76
2020/12/29 09:50:09;;;;;;;;;;;;;;;1.94;100.00;97411.38;5074663;28;20015;-76
2020/12/29 09:52:36;;;;;;;;;;;;;;;1.96;100.00;97408.97;5074422;28;19986;-77
2020/12/29 09:55:03;;;;;;;;;;;;;;;1.92;100.00;97416.50;5064002;28;19978;-77
2020/12/29 09:57:31;;;;;;;;;;;;;;;1.95;100.00;97418.44;5069643;28;20315;-78
2020/12/29 09:59:58;;;;;;;;;;;;;;;2.01;100.00;97434.13;5068717;28;19928;-77
2020/12/29 10:02:25;;;;;;;;;;;;;;;2.03;100.00;97439.25;5069027;28;19954;-77
2020/12/29 10:04:51;;;;;;;;;;;;;;;2.09;100.00;97445.88;5069159;28;19932;-77
2020/12/29 10:07:18;;;;;;;;;;;;;;;2.17;100.00;97450.13;5068433;28;20145;-78
2020/12/29 10:09:44;;;;;;;;;;;;;;;2.23;100.00;97459.53;5069070;28;19924;-78
2020/12/29 10:12:11;;;;;;;;;;;;;;;2.24;100.00;97461.09;5068486;28;19925;-77
2020/12/29 10:14:37;;;;;;;;;;;;;;;2.30;100.00;97473.25;5050940;28;20306;-77
2020/12/29 10:17:04;;;;;;;;;;;;;;;2.34;100.00;97480.28;5051578;28;20419;-77
2020/12/29 10:19:30;;;;;;;;;;;;;;;2.37;100.00;97486.94;5068986;28;19928;-77
2020/12/29 10:21:57;;;;;;;;;;;;;;;2.38;100.00;97492.06;5068950;28;20324;-78
2020/12/29 10:24:24;;;;;;;;;;;;;;;2.40;100.00;97502.69;5068690;28;20878;-78
2020/12/29 10:26:51;;;;;;;;;;;;;;;2.42;100.00;97519.59;5048176;28;19940;-78
2020/12/29 10:29:19;;;;;;;;;;;;;;;2.43;100.00;97515.66;5050024;28;19936;-78
2020/12/29 10:31:46;;;;;;;;;;;;;;;2.42;100.00;97530.63;5067735;28;19932;-78
2020/12/29 10:34:13;;;;;;;;;;;;;;;2.40;100.00;97517.25;5050789;28;19986;-78
2020/12/29 10:36:40;;;;;;;;;;;;;;;2.47;100.00;97521.94;5068811;28;19932;-77
2020/12/29 10:39:07;;;;;;;;;;;;;;;2.56;100.00;97536.03;5068243;28;19968;-77
2020/12/29 10:41:35;;;;;;;;;;;;;;;2.61;100.00;97527.28;5067987;28;19932;-76
2020/12/29 10:44:02;;;;;;;;;;;;;;;2.64;100.00;97537.50;5068883;28;19926;-77
2020/12/29 10:46:29;;;;;;;;;;;;;;;2.69;100.00;97539.84;5068068;28;20047;-77
2020/12/29 10:48:55;;;;;;;;;;;;;;;2.73;100.00;97533.09;5050213;28;19929;-77
2020/12/29 10:51:23;;;;;;;;;;;;;;;2.75;100.00;97547.28;5068560;28;20139;-78
2020/12/29 10:53:50;;;;;;;;;;;;;;;2.73;100.00;97551.59;5067913;28;20019;-78
2020/12/29 10:56:16;;;;;;;;;;;;;;;2.78;100.00;97554.72;5050411;28;20017;-78
2020/12/29 10:58:43;;;;;;;;;;;;;;;2.86;100.00;97572.00;5050571;28;20058;-78
2020/12/29 11:01:10;;;;;;;;;;;;;;;2.82;100.00;97555.47;5033237;28;19966;-78
2020/12/29 11:03:39;;;;;;;;;;;;;;;2.83;100.00;97564.53;5048433;28;20458;-77
2020/12/29 11:06:13;;;;;;;;;;;;;;;2.83;100.00;97564.53;5042094;28;20391;-78
2020/12/29 11:08:40;;;;;;;;;;;;;;;2.86;100.00;97560.97;5049979;28;19925;-78
2020/12/29 11:11:06;;;;;;;;;;;;;;;2.83;100.00;97567.28;5052033;28;19928;-78
2020/12/29 11:13:33;;;;;;;;;;;;;;;2.84;100.00;97563.34;5048542;28;20018;-81
2020/12/29 11:16:00;;;;;;;;;;;;;;;2.81;100.00;97566.91;5051570;28;20011;-77
2020/12/29 11:18:27;;;;;;;;;;;;;;;2.83;100.00;97573.56;5070630;28;19924;-78
2020/12/29 11:20:54;;;;;;;;;;;;;;;2.88;100.00;97569.59;5035079;28;20394;-79
2020/12/29 11:23:20;;;;;;;;;;;;;;;2.91;100.00;97579.81;5059445;28;19924;-80
2020/12/29 11:25:47;;;;;;;;;;;;;;;2.91;100.00;97568.78;5051788;28;20440;-78
2020/12/29 11:28:16;;;;;;;;;;;;;;;3.00;100.00;97585.66;5052190;28;20438;-81
2020/12/29 11:30:45;;;;;;;;;;;;;;;3.04;100.00;97583.66;5050425;28;19931;-79
2020/12/29 11:33:12;;;;;;;;;;;;;;;3.01;100.00;97595.50;5068318;28;20431;-78
2020/12/29 11:35:39;;;;;;;;;;;;;;;2.90;100.00;97595.59;5034225;28;19924;-81
2020/12/29 11:38:06;;;;;;;;;;;;;;;2.93;100.00;97589.25;5044935;28;20564;-80
2020/12/29 11:40:58;;;;;;;;;;;;;;;2.92;100.00;97592.44;5052444;28;19925;-79
2020/12/29 11:43:25;;;;;;;;;;;;;;;2.91;100.00;97590.84;5068014;28;20019;-85
2020/12/29 11:45:52;;;;;;;;;;;;;;;2.91;100.00;97590.84;5070029;28;19924;-78
2020/12/29 11:48:18;;;;;;;;;;;;;;;2.87;100.00;97590.09;5068308;28;20019;-78
2020/12/29 11:50:45;;;;;;;;;;;;;;;2.87;100.00;97595.63;5063448;28;19924;-79
2020/12/29 11:53:12;;;;;;;;;;;;;;;2.82;100.00;97598.81;5066608;28;19928;-79
2020/12/29 11:55:38;;;;;;;;;;;;;;;2.81;100.00;97600.81;5065163;28;19924;-78
2020/12/29 11:58:05;;;;;;;;;;;;;;;2.86;100.00;97610.63;5051404;28;19924;-78
2020/12/29 12:00:31;;;;;;;;;;;;;;;2.86;100.00;97610.63;5068451;28;20447;-78
2020/12/29 12:02:58;;;;;;;;;;;;;;;2.87;100.00;97609.41;5069095;28;19931;-78
2020/12/29 12:05:25;;;;;;;;;;;;;;;2.94;100.00;97618.41;5065228;28;20481;-78
2020/12/29 12:07:51;;;;;;;;;;;;;;;2.96;100.00;97629.03;5068207;28;19924;-78
2020/12/29 12:10:18;;;;;;;;;;;;;;;2.95;100.00;97613.69;5068928;28;19929;-78
2020/12/29 12:12:44;;;;;;;;;;;;;;;2.98;100.00;97621.16;5034267;28;19928;-78
2020/12/29 12:15:11;;;;;;;;;;;;;;;2.98;100.00;97618.38;5050637;28;19936;-78
2020/12/29 12:17:37;;;;;;;;;;;;;;;3.00;100.00;97624.28;5069416;28;19932;-77
2020/12/29 12:20:04;;;;;;;;;;;;;;;3.02;100.00;97621.88;5068696;28;19929;-77
2020/12/29 12:22:31;;;;;;;;;;;;;;;3.04;100.00;97633.31;5051253;28;19950;-77
2020/12/29 12:24:57;;;;;;;;;;;;;;;3.06;100.00;97628.19;5018806;28;19924;-78
2020/12/29 12:27:24;;;;;;;;;;;;;;;3.04;100.00;97631.34;5073767;28;19932;-78
2020/12/29 12:29:50;;;;;;;;;;;;;;;3.08;100.00;97645.88;5075913;28;19924;-78
2020/12/29 12:32:17;;;;;;;;;;;;;;;3.10;100.00;97653.75;5075963;28;19928;-78
2020/12/29 12:34:43;;;;;;;;;;;;;;;3.10;100.00;97640.75;5042415;28;20023;-75
2020/12/29 12:37:10;;;;;;;;;;;;;;;3.15;100.00;97645.03;5058983;28;19924;-78
2020/12/29 12:39:37;;;;;;;;;;;;;;;3.13;100.00;97641.91;5058913;28;20330;-77
2020/12/29 12:42:03;;;;;;;;;;;;;;;3.20;100.00;97653.66;5076715;28;19931;-79
2020/12/29 12:44:30;;;;;;;;;;;;;;;3.22;100.00;97661.53;5058750;28;19967;-79
2020/12/29 12:46:57;;;;;;;;;;;;;;;3.23;100.00;97663.09;5076450;28;19974;-80
2020/12/29 12:49:23;;;;;;;;;;;;;;;3.34;100.00;97669.28;5076578;28;19925;-80